sensor_id;sensor_type;location;lat;lon;timestamp;pressure;altitude;pressure_sealevel;temperature;humidity
55263;BME280;41125;48.752;9.168;2023-02-02T00:00:27;97469.91;;;3.74;77.12
55263;BME280;41125;48.752;9.168;2023-02-02T00:00:58;97476.00;;;3.69;77.91
55263;BME280;41125;48.752;9.168;2023-02-02T00:01:30;97485.31;;;3.67;77.85
55263;BME280;41125;48.752;9.168;2023-02-02T00:02:02;97478.44;;;3.71;77.59
55263;BME280;41125;48.752;9.168;2023-02-02T00:02:34;97480.06;;;3.72;77.51
55263;BME280;41125;48.752;9.168;2023-02-02T00:03:05;97474.47;;;3.74;77.62
55263;BME280;41125;48.752;9.168;2023-02-02T00:03:36;97480.19;;;3.77;77.24
55263;BME280;41125;48.752;9.168;2023-02-02T00:04:11;97474.09;;;3.82;77.02
55263;BME280;41125;48.752;9.168;2023-02-02T00:04:45;97478.28;;;3.89;76.65
55263;BME280;41125;48.752;9.168;2023-02-02T00:05:16;97477.22;;;3.90;76.76
55263;BME280;41125;48.752;9.168;2023-02-02T00:05:50;97477.34;;;3.95;76.30
55263;BME280;41125;48.752;9.168;2023-02-02T00:06:24;97483.31;;;3.97;76.55
55263;BME280;41125;48.752;9.168;2023-02-02T00:06:58;97472.22;;;3.94;76.54
55263;BME280;41125;48.752;9.168;2023-02-02T00:07:29;97478.53;;;3.88;76.62
55263;BME280;41125;48.752;9.168;2023-02-02T00:08:00;97478.16;;;3.84;76.88
55263;BME280;41125;48.752;9.168;2023-02-02T00:08:32;97478.53;;;3.88;76.77
55263;BME280;41125;48.752;9.168;2023-02-02T00:09:05;97473.03;;;3.83;77.51
55263;BME280;41125;48.752;9.168;2023-02-02T00:09:40;97475.88;;;3.76;77.67
55263;BME280;41125;48.752;9.168;2023-02-02T00:10:15;97480.06;;;3.72;77.65
55263;BME280;41125;48.752;9.168;2023-02-02T00:10:50;97473.06;;;3.71;77.79
55263;BME280;41125;48.752;9.168;2023-02-02T00:11:21;97469.44;;;3.65;77.81
55263;BME280;41125;48.752;9.168;2023-02-02T00:11:53;97470.03;;;3.67;78.25
55263;BME280;41125;48.752;9.168;2023-02-02T00:12:25;97467.34;;;3.67;78.20
55263;BME280;41125;48.752;9.168;2023-02-02T00:12:57;97473.53;;;3.68;77.93
55263;BME280;41125;48.752;9.168;2023-02-02T00:13:28;97480.78;;;3.79;77.65
55263;BME280;41125;48.752;9.168;2023-02-02T00:14:00;97475.59;;;3.89;77.10
55263;BME280;41125;48.752;9.168;2023-02-02T00:14:31;97473.03;;;3.94;76.74
55263;BME280;41125;48.752;9.168;2023-02-02T00:15:02;97474.56;;;3.90;76.82
55263;BME280;41125;48.752;9.168;2023-02-02T00:15:37;97474.44;;;3.97;76.38
55263;BME280;41125;48.752;9.168;2023-02-02T00:16:47;97464.41;;;3.92;76.82
55263;BME280;41125;48.752;9.168;2023-02-02T00:17:19;97471.63;;;3.92;76.68
55263;BME280;41125;48.752;9.168;2023-02-02T00:17:50;97468.59;;;3.88;76.89
55263;BME280;41125;48.752;9.168;2023-02-02T00:18:21;97465.34;;;3.86;76.89
55263;BME280;41125;48.752;9.168;2023-02-02T00:18:59;97460.94;;;3.80;77.06
55263;BME280;41125;48.752;9.168;2023-02-02T00:19:31;97462.53;;;3.81;77.15
55263;BME280;41125;48.752;9.168;2023-02-02T00:20:05;97462.41;;;3.88;77.07
55263;BME280;41125;48.752;9.168;2023-02-02T00:20:36;97462.19;;;3.89;76.79
55263;BME280;41125;48.752;9.168;2023-02-02T00:21:08;97468.13;;;3.91;76.96
55263;BME280;41125;48.752;9.168;2023-02-02T00:21:40;97462.41;;;3.88;77.14
55263;BME280;41125;48.752;9.168;2023-02-02T00:22:11;97473.38;;;3.86;77.04
55263;BME280;41125;48.752;9.168;2023-02-02T00:22:42;97460.94;;;3.80;77.50
55263;BME280;41125;48.752;9.168;2023-02-02T00:23:15;97468.88;;;3.75;77.69
55263;BME280;41125;48.752;9.168;2023-02-02T00:23:47;97460.22;;;3.73;77.79
55263;BME280;41125;48.752;9.168;2023-02-02T00:24:19;97466.06;;;3.70;77.72
55263;BME280;41125;48.752;9.168;2023-02-02T00:24:50;97460.94;;;3.68;78.43
55263;BME280;41125;48.752;9.168;2023-02-02T00:25:25;97463.28;;;3.65;78.54
55263;BME280;41125;48.752;9.168;2023-02-02T00:25:56;97464.09;;;3.65;78.23
55263;BME280;41125;48.752;9.168;2023-02-02T00:26:27;97467.59;;;3.66;78.47
55263;BME280;41125;48.752;9.168;2023-02-02T00:26:59;97467.22;;;3.74;78.02
55263;BME280;41125;48.752;9.168;2023-02-02T00:27:31;97470.84;;;3.80;77.92
55263;BME280;41125;48.752;9.168;2023-02-02T00:28:02;97466.16;;;3.87;77.31
55263;BME280;41125;48.752;9.168;2023-02-02T00:28:37;97465.44;;;3.91;77.11
55263;BME280;41125;48.752;9.168;2023-02-02T00:29:14;97473.03;;;3.94;76.93
55263;BME280;41125;48.752;9.168;2023-02-02T00:29:45;97471.28;;;4.00;76.71
55263;BME280;41125;48.752;9.168;2023-02-02T00:30:18;97480.38;;;3.99;76.79
55263;BME280;41125;48.752;9.168;2023-02-02T00:30:49;97481.66;;;3.96;76.75
55263;BME280;41125;48.752;9.168;2023-02-02T00:31:21;97479.31;;;4.00;76.62
55263;BME280;41125;48.752;9.168;2023-02-02T00:31:53;97476.41;;;4.01;76.39
55263;BME280;41125;48.752;9.168;2023-02-02T00:32:25;97477.59;;;3.94;76.94
55263;BME280;41125;48.752;9.168;2023-02-02T00:32:56;97474.44;;;3.85;77.47
55263;BME280;41125;48.752;9.168;2023-02-02T00:33:28;97481.00;;;3.78;77.53
55263;BME280;41125;48.752;9.168;2023-02-02T00:33:59;97483.34;;;3.74;77.81
55263;BME280;41125;48.752;9.168;2023-02-02T00:34:30;97483.34;;;3.74;77.60
55263;BME280;41125;48.752;9.168;2023-02-02T00:35:01;97488.25;;;3.77;78.00
55263;BME280;41125;48.752;9.168;2023-02-02T00:35:33;97486.97;;;3.80;77.71
55263;BME280;41125;48.752;9.168;2023-02-02T00:36:05;97484.59;;;3.83;78.06
55263;BME280;41125;48.752;9.168;2023-02-02T00:36:39;97479.34;;;3.88;77.32
55263;BME280;41125;48.752;9.168;2023-02-02T00:37:14;97480.03;;;3.95;77.21
55263;BME280;41125;48.752;9.168;2023-02-02T00:37:45;97485.28;;;4.02;76.90
55263;BME280;41125;48.752;9.168;2023-02-02T00:38:16;97475.81;;;3.99;76.61
55263;BME280;41125;48.752;9.168;2023-02-02T00:38:49;97472.09;;;4.00;77.01
55263;BME280;41125;48.752;9.168;2023-02-02T00:39:23;97480.72;;;4.02;76.81
55263;BME280;41125;48.752;9.168;2023-02-02T00:39:57;97475.00;;;3.99;76.84
55263;BME280;41125;48.752;9.168;2023-02-02T00:40:29;97487.63;;;3.98;76.96
55263;BME280;41125;48.752;9.168;2023-02-02T00:41:00;97474.09;;;3.93;76.94
55263;BME280;41125;48.752;9.168;2023-02-02T00:41:31;97475.12;;;3.92;77.35
55263;BME280;41125;48.752;9.168;2023-02-02T00:42:03;97476.28;;;3.96;77.06
55263;BME280;41125;48.752;9.168;2023-02-02T00:42:34;97482.81;;;4.00;76.96
55263;BME280;41125;48.752;9.168;2023-02-02T00:43:07;97477.00;;;4.03;77.04
55263;BME280;41125;48.752;9.168;2023-02-02T00:43:39;97483.06;;;4.11;76.51
55263;BME280;41125;48.752;9.168;2023-02-02T00:44:10;97474.75;;;4.12;76.34
55263;BME280;41125;48.752;9.168;2023-02-02T00:44:59;97470.19;;;4.13;76.43
55263;BME280;41125;48.752;9.168;2023-02-02T00:45:46;97476.16;;;4.15;76.34
55263;BME280;41125;48.752;9.168;2023-02-02T00:46:18;97469.63;;;4.11;76.29
55263;BME280;41125;48.752;9.168;2023-02-02T00:46:49;97482.47;;;4.09;76.61
55263;BME280;41125;48.752;9.168;2023-02-02T00:47:21;97473.84;;;4.07;76.44
55263;BME280;41125;48.752;9.168;2023-02-02T00:47:52;97474.88;;;4.06;76.55
55263;BME280;41125;48.752;9.168;2023-02-02T00:48:24;97474.31;;;4.03;76.59
55263;BME280;41125;48.752;9.168;2023-02-02T00:48:59;97476.63;;;4.12;76.60
55263;BME280;41125;48.752;9.168;2023-02-02T00:49:31;97473.59;;;4.08;76.81
55263;BME280;41125;48.752;9.168;2023-02-02T00:50:03;97474.06;;;4.05;76.45
55263;BME280;41125;48.752;9.168;2023-02-02T00:50:38;97476.28;;;4.08;76.59
55263;BME280;41125;48.752;9.168;2023-02-02T00:51:09;97468.00;;;4.10;76.64
55263;BME280;41125;48.752;9.168;2023-02-02T00:51:40;97479.38;;;4.17;76.50
55263;BME280;41125;48.752;9.168;2023-02-02T00:52:14;97478.69;;;4.21;76.00
55263;BME280;41125;48.752;9.168;2023-02-02T00:52:46;97479.50;;;4.22;75.78
55263;BME280;41125;48.752;9.168;2023-02-02T00:53:18;97470.84;;;4.20;76.01
55263;BME280;41125;48.752;9.168;2023-02-02T00:53:49;97465.50;;;4.20;75.82
55263;BME280;41125;48.752;9.168;2023-02-02T00:54:21;97474.59;;;4.19;75.89
55263;BME280;41125;48.752;9.168;2023-02-02T00:54:52;97475.66;;;4.18;76.31
55263;BME280;41125;48.752;9.168;2023-02-02T00:55:25;97474.12;;;4.22;76.03
55263;BME280;41125;48.752;9.168;2023-02-02T00:55:57;97469.22;;;4.19;76.05
55263;BME280;41125;48.752;9.168;2023-02-02T00:56:28;97483.47;;;4.19;76.19
55263;BME280;41125;48.752;9.168;2023-02-02T00:56:59;97470.03;;;4.19;76.25
55263;BME280;41125;48.752;9.168;2023-02-02T00:57:30;97471.19;;;4.23;75.96
55263;BME280;41125;48.752;9.168;2023-02-02T00:58:02;97464.06;;;4.29;75.59
55263;BME280;41125;48.752;9.168;2023-02-02T00:58:33;97464.66;;;4.31;75.64
55263;BME280;41125;48.752;9.168;2023-02-02T00:59:04;97460.31;;;4.30;75.43
55263;BME280;41125;48.752;9.168;2023-02-02T00:59:35;97453.91;;;4.31;75.51
55263;BME280;41125;48.752;9.168;2023-02-02T01:00:12;97471.31;;;4.28;75.63
55263;BME280;41125;48.752;9.168;2023-02-02T01:00:51;97462.44;;;4.28;75.42
55263;BME280;41125;48.752;9.168;2023-02-02T01:01:23;97469.91;;;4.26;75.57
55263;BME280;41125;48.752;9.168;2023-02-02T01:01:54;97473.66;;;4.25;75.62
55263;BME280;41125;48.752;9.168;2023-02-02T01:02:26;97467.22;;;4.26;75.84
55263;BME280;41125;48.752;9.168;2023-02-02T01:02:57;97469.81;;;4.21;76.06
55263;BME280;41125;48.752;9.168;2023-02-02T01:03:35;97466.94;;;4.11;76.51
55263;BME280;41125;48.752;9.168;2023-02-02T01:04:07;97465.16;;;4.16;76.23
55263;BME280;41125;48.752;9.168;2023-02-02T01:04:39;97464.66;;;4.19;76.13
55263;BME280;41125;48.752;9.168;2023-02-02T01:05:12;97464.19;;;4.22;75.97
55263;BME280;41125;48.752;9.168;2023-02-02T01:05:43;97463.37;;;4.22;76.02
55263;BME280;41125;48.752;9.168;2023-02-02T01:06:15;97459.00;;;4.16;76.75
55263;BME280;41125;48.752;9.168;2023-02-02T01:06:47;97458.31;;;4.09;76.60
55263;BME280;41125;48.752;9.168;2023-02-02T01:07:18;97461.69;;;4.04;76.62
55263;BME280;41125;48.752;9.168;2023-02-02T01:07:49;97455.50;;;4.03;77.17
55263;BME280;41125;48.752;9.168;2023-02-02T01:08:23;97461.94;;;4.02;77.25
55263;BME280;41125;48.752;9.168;2023-02-02T01:08:54;97462.63;;;4.10;77.04
55263;BME280;41125;48.752;9.168;2023-02-02T01:09:26;97457.66;;;4.18;76.20
55263;BME280;41125;48.752;9.168;2023-02-02T01:09:57;97462.56;;;4.21;76.21
55263;BME280;41125;48.752;9.168;2023-02-02T01:10:28;97465.50;;;4.20;76.40
55263;BME280;41125;48.752;9.168;2023-02-02T01:10:59;97466.47;;;4.14;76.77
55263;BME280;41125;48.752;9.168;2023-02-02T01:11:31;97466.94;;;4.11;76.77
55263;BME280;41125;48.752;9.168;2023-02-02T01:12:05;97464.50;;;4.09;76.76
55263;BME280;41125;48.752;9.168;2023-02-02T01:12:37;97467.41;;;4.08;77.11
55263;BME280;41125;48.752;9.168;2023-02-02T01:13:08;97470.84;;;4.20;76.41
55263;BME280;41125;48.752;9.168;2023-02-02T01:13:39;97479.03;;;4.25;76.08
55263;BME280;41125;48.752;9.168;2023-02-02T01:14:10;97475.63;;;4.29;75.92
55263;BME280;41125;48.752;9.168;2023-02-02T01:14:42;97478.06;;;4.31;75.75
55263;BME280;41125;48.752;9.168;2023-02-02T01:15:14;97469.44;;;4.29;75.86
55263;BME280;41125;48.752;9.168;2023-02-02T01:15:45;97468.19;;;4.20;75.99
55263;BME280;41125;48.752;9.168;2023-02-02T01:16:17;97465.66;;;4.13;76.47
55263;BME280;41125;48.752;9.168;2023-02-02T01:16:55;97468.00;;;4.10;76.67
55263;BME280;41125;48.752;9.168;2023-02-02T01:17:29;97472.19;;;4.06;76.70
55263;BME280;41125;48.752;9.168;2023-02-02T01:18:01;97478.97;;;4.08;76.56
55263;BME280;41125;48.752;9.168;2023-02-02T01:18:32;97471.97;;;4.07;76.67
55263;BME280;41125;48.752;9.168;2023-02-02T01:19:10;97476.38;;;4.13;76.59
55263;BME280;41125;48.752;9.168;2023-02-02T01:19:42;97472.41;;;4.16;76.65
55263;BME280;41125;48.752;9.168;2023-02-02T01:20:19;97469.72;;;4.16;76.42
55263;BME280;41125;48.752;9.168;2023-02-02T01:21:03;97464.34;;;4.16;76.48
55263;BME280;41125;48.752;9.168;2023-02-02T01:21:34;97477.44;;;4.12;77.25
55263;BME280;41125;48.752;9.168;2023-02-02T01:22:06;97474.41;;;4.09;77.55
55263;BME280;41125;48.752;9.168;2023-02-02T01:22:37;97487.38;;;4.12;77.40
55263;BME280;41125;48.752;9.168;2023-02-02T01:23:12;97475.75;;;4.23;76.58
55263;BME280;41125;48.752;9.168;2023-02-02T01:23:44;97469.44;;;4.29;76.24
55263;BME280;41125;48.752;9.168;2023-02-02T01:24:16;97474.34;;;4.32;76.39
55263;BME280;41125;48.752;9.168;2023-02-02T01:24:47;97473.88;;;4.35;76.07
55263;BME280;41125;48.752;9.168;2023-02-02T01:25:18;97484.38;;;4.36;76.03
55263;BME280;41125;48.752;9.168;2023-02-02T01:25:59;97477.03;;;4.32;76.37
55263;BME280;41125;48.752;9.168;2023-02-02T01:26:31;97481.72;;;4.25;76.30
55263;BME280;41125;48.752;9.168;2023-02-02T01:27:05;97476.56;;;4.23;76.41
55263;BME280;41125;48.752;9.168;2023-02-02T01:27:36;97467.94;;;4.21;76.73
55263;BME280;41125;48.752;9.168;2023-02-02T01:28:11;97488.03;;;4.19;77.73
55263;BME280;41125;48.752;9.168;2023-02-02T01:28:42;97477.53;;;4.17;77.76
55263;BME280;41125;48.752;9.168;2023-02-02T01:29:14;97490.12;;;4.17;77.40
55263;BME280;41125;48.752;9.168;2023-02-02T01:29:45;97493.09;;;4.15;77.46
55263;BME280;41125;48.752;9.168;2023-02-02T01:30:17;97486.31;;;4.13;77.65
55263;BME280;41125;48.752;9.168;2023-02-02T01:30:50;97483.06;;;4.11;77.92
55263;BME280;41125;48.752;9.168;2023-02-02T01:31:22;97489.72;;;4.08;77.76
55263;BME280;41125;48.752;9.168;2023-02-02T01:31:54;97484.00;;;4.04;78.25
55263;BME280;41125;48.752;9.168;2023-02-02T01:32:25;97495.09;;;4.08;78.28
55263;BME280;41125;48.752;9.168;2023-02-02T01:32:56;97489.47;;;4.10;78.27
55263;BME280;41125;48.752;9.168;2023-02-02T01:33:27;97483.53;;;4.08;78.18
55263;BME280;41125;48.752;9.168;2023-02-02T01:33:58;97488.41;;;4.11;78.40
55263;BME280;41125;48.752;9.168;2023-02-02T01:34:30;97492.75;;;4.12;78.31
55263;BME280;41125;48.752;9.168;2023-02-02T01:35:01;97493.63;;;4.17;78.36
55263;BME280;41125;48.752;9.168;2023-02-02T01:35:32;97493.50;;;4.24;78.23
55263;BME280;41125;48.752;9.168;2023-02-02T01:36:07;97486.03;;;4.26;78.32
55263;BME280;41125;48.752;9.168;2023-02-02T01:36:40;97486.50;;;4.23;77.94
55263;BME280;41125;48.752;9.168;2023-02-02T01:37:11;97495.13;;;4.25;78.00
55263;BME280;41125;48.752;9.168;2023-02-02T01:37:42;97490.25;;;4.22;78.11
55263;BME280;41125;48.752;9.168;2023-02-02T01:38:14;97493.97;;;4.21;78.40
55263;BME280;41125;48.752;9.168;2023-02-02T01:38:46;97491.88;;;4.23;78.24
55263;BME280;41125;48.752;9.168;2023-02-02T01:39:18;97493.50;;;4.24;78.45
55263;BME280;41125;48.752;9.168;2023-02-02T01:39:49;97486.97;;;4.20;78.37
55263;BME280;41125;48.752;9.168;2023-02-02T01:40:21;97484.22;;;4.15;78.70
55263;BME280;41125;48.752;9.168;2023-02-02T01:40:54;97493.91;;;4.16;78.76
55263;BME280;41125;48.752;9.168;2023-02-02T01:41:27;97483.72;;;4.18;78.85
55263;BME280;41125;48.752;9.168;2023-02-02T01:41:59;97493.78;;;4.11;79.25
55263;BME280;41125;48.752;9.168;2023-02-02T01:42:30;97490.53;;;4.09;79.34
55263;BME280;41125;48.752;9.168;2023-02-02T01:43:01;97488.41;;;4.11;79.35
55263;BME280;41125;48.752;9.168;2023-02-02T01:44:03;97491.47;;;4.02;79.54
55263;BME280;41125;48.752;9.168;2023-02-02T01:45:47;97494.72;;;4.04;79.56
55263;BME280;41125;48.752;9.168;2023-02-02T01:46:29;97498.47;;;4.03;79.66
55263;BME280;41125;48.752;9.168;2023-02-02T01:47:01;97501.75;;;4.06;79.79
55263;BME280;41125;48.752;9.168;2023-02-02T01:47:42;97500.09;;;4.04;79.73
55263;BME280;41125;48.752;9.168;2023-02-02T01:48:20;97494.84;;;3.98;79.89
55263;BME280;41125;48.752;9.168;2023-02-02T01:49:16;97489.25;;;3.99;80.19
55263;BME280;41125;48.752;9.168;2023-02-02T01:49:50;97493.94;;;3.92;80.21
55263;BME280;41125;48.752;9.168;2023-02-02T01:50:27;97501.16;;;3.92;80.40
55263;BME280;41125;48.752;9.168;2023-02-02T01:51:04;97491.94;;;3.88;80.91
55263;BME280;41125;48.752;9.168;2023-02-02T01:51:43;97501.06;;;3.87;81.16
55263;BME280;41125;48.752;9.168;2023-02-02T01:52:18;97495.22;;;3.90;81.10
55263;BME280;41125;48.752;9.168;2023-02-02T01:52:54;97487.50;;;3.93;80.94
55263;BME280;41125;48.752;9.168;2023-02-02T01:53:27;97494.97;;;3.91;80.85
55263;BME280;41125;48.752;9.168;2023-02-02T01:53:59;97494.97;;;3.91;80.76
55263;BME280;41125;48.752;9.168;2023-02-02T01:54:44;97485.28;;;4.02;80.70
55263;BME280;41125;48.752;9.168;2023-02-02T01:55:21;97481.53;;;4.03;80.45
55263;BME280;41125;48.752;9.168;2023-02-02T01:55:54;97493.56;;;4.00;80.48
55263;BME280;41125;48.752;9.168;2023-02-02T01:56:38;97485.41;;;3.95;80.54
55263;BME280;41125;48.752;9.168;2023-02-02T01:57:16;97490.78;;;3.95;80.66
55263;BME280;41125;48.752;9.168;2023-02-02T01:58:03;97490.44;;;3.92;80.70
55263;BME280;41125;48.752;9.168;2023-02-02T01:58:37;97486.34;;;3.89;80.90
55263;BME280;41125;48.752;9.168;2023-02-02T01:59:12;97483.66;;;3.89;80.91
55263;BME280;41125;48.752;9.168;2023-02-02T01:59:53;97479.00;;;3.85;80.86
55263;BME280;41125;48.752;9.168;2023-02-02T02:00:29;97484.94;;;3.87;81.21
55263;BME280;41125;48.752;9.168;2023-02-02T02:01:00;97492.19;;;3.86;81.20
55263;BME280;41125;48.752;9.168;2023-02-02T02:01:33;97487.84;;;3.85;81.19
55263;BME280;41125;48.752;9.168;2023-02-02T02:02:05;97484.25;;;3.91;80.94
55263;BME280;41125;48.752;9.168;2023-02-02T02:02:39;97489.94;;;3.95;80.77
55263;BME280;41125;48.752;9.168;2023-02-02T02:03:14;97483.78;;;3.94;80.97
55263;BME280;41125;48.752;9.168;2023-02-02T02:03:47;97477.81;;;3.92;80.85
55263;BME280;41125;48.752;9.168;2023-02-02T02:04:18;97487.50;;;3.93;80.78
55263;BME280;41125;48.752;9.168;2023-02-02T02:04:50;97481.56;;;3.91;80.91
55263;BME280;41125;48.752;9.168;2023-02-02T02:05:31;97490.44;;;3.92;81.14
55263;BME280;41125;48.752;9.168;2023-02-02T02:06:16;97487.97;;;4.02;80.70
55263;BME280;41125;48.752;9.168;2023-02-02T02:06:49;97489.84;;;4.01;80.70
55263;BME280;41125;48.752;9.168;2023-02-02T02:07:23;97489.59;;;4.03;80.48
55263;BME280;41125;48.752;9.168;2023-02-02T02:08:16;97482.34;;;4.03;80.46
55263;BME280;41125;48.752;9.168;2023-02-02T02:08:59;97480.38;;;4.11;80.15
55263;BME280;41125;48.752;9.168;2023-02-02T02:09:34;97491.22;;;4.16;79.58
55263;BME280;41125;48.752;9.168;2023-02-02T02:10:07;97483.06;;;4.11;79.73
55263;BME280;41125;48.752;9.168;2023-02-02T02:10:39;97479.78;;;4.09;79.99
55263;BME280;41125;48.752;9.168;2023-02-02T02:11:10;97487.72;;;4.03;80.11
55263;BME280;41125;48.752;9.168;2023-02-02T02:11:41;97485.28;;;4.02;80.34
55263;BME280;41125;48.752;9.168;2023-02-02T02:12:14;97489.72;;;3.96;80.41
55263;BME280;41125;48.752;9.168;2023-02-02T02:12:47;97483.88;;;3.88;80.75
55263;BME280;41125;48.752;9.168;2023-02-02T02:13:20;97485.19;;;3.85;81.17
55263;BME280;41125;48.752;9.168;2023-02-02T02:13:54;97483.41;;;3.91;81.30
55263;BME280;41125;48.752;9.168;2023-02-02T02:14:48;97486.22;;;3.96;80.91
55263;BME280;41125;48.752;9.168;2023-02-02T02:16:13;97481.66;;;3.96;80.86
55263;BME280;41125;48.752;9.168;2023-02-02T02:17:16;97481.31;;;4.04;80.43
55263;BME280;41125;48.752;9.168;2023-02-02T02:18:08;97476.88;;;3.98;80.72
55263;BME280;41125;48.752;9.168;2023-02-02T02:22:13;97477.69;;;3.87;81.36
55263;BME280;41125;48.752;9.168;2023-02-02T02:30:56;97493.56;;;4.00;80.78
55263;BME280;41125;48.752;9.168;2023-02-02T02:33:10;97486.69;;;3.93;81.44
55263;BME280;41125;48.752;9.168;2023-02-02T02:34:16;97480.16;;;4.00;81.11
55263;BME280;41125;48.752;9.168;2023-02-02T02:36:05;97485.28;;;4.02;80.47
55263;BME280;41125;48.752;9.168;2023-02-02T02:36:56;97485.97;;;3.97;80.76
55263;BME280;41125;48.752;9.168;2023-02-02T02:39:01;97484.94;;;3.98;80.96
55263;BME280;41125;48.752;9.168;2023-02-02T02:40:49;97482.81;;;4.00;80.80
55263;BME280;41125;48.752;9.168;2023-02-02T02:41:27;97477.81;;;4.04;80.77
55263;BME280;41125;48.752;9.168;2023-02-02T02:42:09;97481.41;;;4.10;80.33
55263;BME280;41125;48.752;9.168;2023-02-02T02:42:47;97483.06;;;4.11;80.49
55263;BME280;41125;48.752;9.168;2023-02-02T02:43:35;97479.19;;;4.07;80.45
55263;BME280;41125;48.752;9.168;2023-02-02T02:44:10;97486.34;;;4.01;80.74
55263;BME280;41125;48.752;9.168;2023-02-02T02:44:43;97483.75;;;4.06;80.91
55263;BME280;41125;48.752;9.168;2023-02-02T02:45:16;97484.09;;;4.10;80.56
55263;BME280;41125;48.752;9.168;2023-02-02T02:45:49;97487.59;;;4.10;80.29
55263;BME280;41125;48.752;9.168;2023-02-02T02:46:21;97488.91;;;4.08;80.32
55263;BME280;41125;48.752;9.168;2023-02-02T02:46:53;97490.88;;;4.12;80.11
55263;BME280;41125;48.752;9.168;2023-02-02T02:47:25;97487.22;;;4.18;79.83
55263;BME280;41125;48.752;9.168;2023-02-02T02:47:59;97477.28;;;4.19;79.73
55263;BME280;41125;48.752;9.168;2023-02-02T02:48:32;97489.00;;;4.13;79.89
55263;BME280;41125;48.752;9.168;2023-02-02T02:49:10;97477.09;;;4.09;80.00
55263;BME280;41125;48.752;9.168;2023-02-02T02:49:43;97492.16;;;4.10;80.34
55263;BME280;41125;48.752;9.168;2023-02-02T02:50:16;97480.38;;;4.11;80.43
55263;BME280;41125;48.752;9.168;2023-02-02T02:50:47;97474.88;;;4.06;80.40
55263;BME280;41125;48.752;9.168;2023-02-02T02:51:54;97480.84;;;3.96;81.40
55263;BME280;41125;48.752;9.168;2023-02-02T02:52:25;97483.78;;;3.94;81.20
55263;BME280;41125;48.752;9.168;2023-02-02T02:53:07;97477.69;;;3.99;81.15
55263;BME280;41125;48.752;9.168;2023-02-02T02:53:39;97479.19;;;4.07;80.85
55263;BME280;41125;48.752;9.168;2023-02-02T02:54:28;97474.88;;;4.06;80.84
55263;BME280;41125;48.752;9.168;2023-02-02T02:55:02;97483.19;;;4.04;80.57
55263;BME280;41125;48.752;9.168;2023-02-02T02:55:53;97482.81;;;4.00;80.83
55263;BME280;41125;48.752;9.168;2023-02-02T02:57:01;97479.09;;;4.01;80.91
55263;BME280;41125;48.752;9.168;2023-02-02T02:58:09;97482.34;;;4.03;81.07
55263;BME280;41125;48.752;9.168;2023-02-02T02:58:49;97470.47;;;3.99;80.94
55263;BME280;41125;48.752;9.168;2023-02-02T02:59:45;97474.66;;;3.95;80.97
55263;BME280;41125;48.752;9.168;2023-02-02T03:00:40;97480.63;;;3.97;81.23
55263;BME280;41125;48.752;9.168;2023-02-02T03:01:20;97474.19;;;3.98;81.05
55263;BME280;41125;48.752;9.168;2023-02-02T03:04:04;97478.16;;;4.08;80.98
55263;BME280;41125;48.752;9.168;2023-02-02T03:05:14;97477.94;;;3.97;81.51
55263;BME280;41125;48.752;9.168;2023-02-02T03:06:17;97476.75;;;3.93;81.95
55263;BME280;41125;48.752;9.168;2023-02-02T03:06:56;97480.03;;;3.95;81.64
55263;BME280;41125;48.752;9.168;2023-02-02T03:07:50;97468.94;;;3.92;81.65
55263;BME280;41125;48.752;9.168;2023-02-02T03:08:48;97484.47;;;4.01;81.13
55263;BME280;41125;48.752;9.168;2023-02-02T03:09:24;97478.16;;;4.08;81.00
55263;BME280;41125;48.752;9.168;2023-02-02T03:09:57;97474.88;;;4.06;80.82
55263;BME280;41125;48.752;9.168;2023-02-02T03:10:32;97478.72;;;4.10;80.55
55263;BME280;41125;48.752;9.168;2023-02-02T03:11:06;97484.22;;;4.15;80.57
55263;BME280;41125;48.752;9.168;2023-02-02T03:11:38;97477.69;;;4.11;80.34
55263;BME280;41125;48.752;9.168;2023-02-02T03:12:09;97475.00;;;4.11;80.45
55263;BME280;41125;48.752;9.168;2023-02-02T03:12:45;97482.56;;;4.14;80.40
55263;BME280;41125;48.752;9.168;2023-02-02T03:13:19;97475.09;;;4.16;80.29
55263;BME280;41125;48.752;9.168;2023-02-02T03:13:51;97483.47;;;4.19;80.28
55263;BME280;41125;48.752;9.168;2023-02-02T03:14:24;97473.47;;;4.15;79.99
55263;BME280;41125;48.752;9.168;2023-02-02T03:14:55;97473.13;;;4.11;80.44
55263;BME280;41125;48.752;9.168;2023-02-02T03:15:27;97479.31;;;4.12;80.16
55263;BME280;41125;48.752;9.168;2023-02-02T03:15:58;97479.78;;;4.09;80.77
55263;BME280;41125;48.752;9.168;2023-02-02T03:16:30;97475.56;;;4.13;80.56
55263;BME280;41125;48.752;9.168;2023-02-02T03:17:05;97479.31;;;4.12;80.33
55263;BME280;41125;48.752;9.168;2023-02-02T03:17:37;97470.19;;;4.13;80.13
55263;BME280;41125;48.752;9.168;2023-02-02T03:18:09;97479.31;;;4.12;80.14
55263;BME280;41125;48.752;9.168;2023-02-02T03:18:43;97480.47;;;4.16;80.17
55263;BME280;41125;48.752;9.168;2023-02-02T03:19:14;97479.31;;;4.12;80.20
55263;BME280;41125;48.752;9.168;2023-02-02T03:19:45;97477.69;;;4.11;80.69
55263;BME280;41125;48.752;9.168;2023-02-02T03:20:20;97480.13;;;4.12;80.59
55263;BME280;41125;48.752;9.168;2023-02-02T03:20:52;97485.84;;;4.16;80.26
55263;BME280;41125;48.752;9.168;2023-02-02T03:21:24;97479.97;;;4.19;80.40
55263;BME280;41125;48.752;9.168;2023-02-02T03:21:55;97486.03;;;4.26;79.96
55263;BME280;41125;48.752;9.168;2023-02-02T03:22:26;97470.37;;;4.23;79.72
55263;BME280;41125;48.752;9.168;2023-02-02T03:22:57;97486.97;;;4.20;79.93
55263;BME280;41125;48.752;9.168;2023-02-02T03:23:29;97478.03;;;4.14;79.86
55263;BME280;41125;48.752;9.168;2023-02-02T03:24:00;97486.31;;;4.13;80.28
55263;BME280;41125;48.752;9.168;2023-02-02T03:24:32;97486.78;;;4.10;80.04
55263;BME280;41125;48.752;9.168;2023-02-02T03:25:04;97495.66;;;4.10;80.49
55263;BME280;41125;48.752;9.168;2023-02-02T03:25:36;97486.09;;;4.14;80.25
55263;BME280;41125;48.752;9.168;2023-02-02T03:26:08;97478.34;;;4.18;79.91
55263;BME280;41125;48.752;9.168;2023-02-02T03:26:39;97484.53;;;4.18;79.92
55263;BME280;41125;48.752;9.168;2023-02-02T03:27:10;97482.34;;;4.15;80.16
55263;BME280;41125;48.752;9.168;2023-02-02T03:27:42;97483.41;;;4.14;79.90
55263;BME280;41125;48.752;9.168;2023-02-02T03:28:15;97472.06;;;4.12;80.10
55263;BME280;41125;48.752;9.168;2023-02-02T03:28:48;97482.22;;;4.10;80.12